createdAt,value
2016-06-27T00:00:46.266Z,0
2016-06-27T00:01:46.269Z,0
2016-06-27T00:02:46.240Z,0
2016-06-27T00:03:46.209Z,0
2016-06-27T00:04:46.295Z,0
2016-06-27T00:05:46.204Z,0
2016-06-27T00:06:46.225Z,0
2016-06-27T00:07:46.219Z,0
2016-06-27T00:08:46.211Z,0
2016-06-27T00:09:46.230Z,0
2016-06-27T00:10:46.213Z,0
2016-06-27T00:11:46.287Z,0
2016-06-27T00:12:46.235Z,0
2016-06-27T00:13:46.329Z,0
2016-06-27T00:14:46.262Z,0
2016-06-27T00:15:46.210Z,0
2016-06-27T00:16:46.236Z,0
2016-06-27T00:17:46.497Z,0
2016-06-27T00:18:46.538Z,0
2016-06-27T00:19:46.243Z,0
2016-06-27T00:20:46.279Z,0
2016-06-27T00:21:46.244Z,0
2016-06-27T00:22:46.259Z,0
2016-06-27T00:23:46.397Z,0
2016-06-27T00:24:46.429Z,0
2016-06-27T00:25:46.858Z,0
2016-06-27T00:26:46.249Z,0
2016-06-27T00:27:46.225Z,0
2016-06-27T00:28:46.258Z,0
2016-06-27T00:29:46.285Z,0
2016-06-27T00:30:46.239Z,0
2016-06-27T00:31:46.276Z,0
2016-06-27T00:32:46.266Z,0
2016-06-27T00:33:46.312Z,0
2016-06-27T00:34:46.301Z,0
2016-06-27T00:35:46.307Z,0
2016-06-27T00:36:46.249Z,0
2016-06-27T00:37:46.282Z,0
2016-06-27T00:38:46.234Z,0
2016-06-27T00:39:46.304Z,0
2016-06-27T00:40:46.288Z,0
2016-06-27T00:41:46.262Z,0
2016-06-27T00:42:46.264Z,0
2016-06-27T00:43:46.280Z,0
2016-06-27T00:44:46.245Z,0
2016-06-27T00:45:46.293Z,0
2016-06-27T00:46:46.266Z,0
2016-06-27T00:47:46.294Z,0
2016-06-27T00:48:46.308Z,0
2016-06-27T00:49:46.286Z,0
2016-06-27T00:50:46.257Z,0
2016-06-27T00:51:46.282Z,0
2016-06-27T00:52:46.230Z,0
2016-06-27T00:53:46.263Z,0
2016-06-27T00:54:46.250Z,0
2016-06-27T00:55:46.287Z,0
2016-06-27T00:56:46.247Z,0
2016-06-27T00:57:46.294Z,0
2016-06-27T00:58:46.252Z,0
2016-06-27T00:59:46.283Z,0
2016-06-27T01:00:46.260Z,0
2016-06-27T01:01:46.298Z,0
2016-06-27T01:02:46.591Z,0
2016-06-27T01:03:46.298Z,0
2016-06-27T01:04:46.291Z,0
2016-06-27T01:05:46.327Z,0
2016-06-27T01:06:46.322Z,0
2016-06-27T01:07:46.309Z,0
2016-06-27T01:08:46.235Z,0
2016-06-27T01:09:46.256Z,0
2016-06-27T01:10:46.285Z,0
2016-06-27T01:11:46.279Z,0
2016-06-27T01:12:46.291Z,0
2016-06-27T01:13:46.276Z,0
2016-06-27T01:14:46.269Z,0
2016-06-27T01:15:46.438Z,0
2016-06-27T01:16:46.360Z,0
2016-06-27T01:17:46.275Z,0
2016-06-27T01:18:46.297Z,0
2016-06-27T01:19:46.288Z,0
2016-06-27T01:20:46.282Z,0
2016-06-27T01:21:46.269Z,0
2016-06-27T01:22:46.305Z,0
2016-06-27T01:23:46.273Z,0
2016-06-27T01:24:46.267Z,0
2016-06-27T01:25:46.399Z,0
2016-06-27T01:26:46.307Z,0
2016-06-27T01:27:46.308Z,0
2016-06-27T01:28:46.370Z,0
2016-06-27T01:29:46.295Z,0
2016-06-27T01:30:46.324Z,0
2016-06-27T01:31:46.323Z,0
2016-06-27T01:32:46.322Z,0
2016-06-27T01:33:46.275Z,0
2016-06-27T01:34:46.976Z,0
2016-06-27T01:35:46.311Z,0
2016-06-27T01:36:46.329Z,0
2016-06-27T01:37:46.356Z,0
2016-06-27T01:38:46.323Z,0
2016-06-27T01:39:46.324Z,0
2016-06-27T01:40:46.288Z,0
2016-06-27T01:41:46.298Z,0
2016-06-27T01:42:46.280Z,0
2016-06-27T01:43:47.003Z,0
2016-06-27T01:44:46.324Z,0
2016-06-27T01:45:46.324Z,0
2016-06-27T01:46:46.298Z,0
2016-06-27T01:47:46.281Z,0
2016-06-27T01:48:46.313Z,0
2016-06-27T01:49:46.307Z,0
2016-06-27T01:50:46.290Z,0
2016-06-27T01:51:46.357Z,0
2016-06-27T01:52:47.060Z,0
2016-06-27T01:53:46.337Z,0
2016-06-27T01:54:46.304Z,0
2016-06-27T01:55:46.300Z,0
2016-06-27T01:56:46.331Z,0
2016-06-27T01:57:46.325Z,0
2016-06-27T01:58:46.337Z,0
2016-06-27T01:59:46.360Z,0
2016-06-27T02:00:46.339Z,0
2016-06-27T02:01:46.970Z,0
2016-06-27T02:02:46.319Z,0
2016-06-27T02:03:46.314Z,0
2016-06-27T02:04:46.308Z,0
2016-06-27T02:05:46.311Z,0
2016-06-27T02:06:46.290Z,0
2016-06-27T02:07:46.296Z,0
2016-06-27T02:08:46.321Z,0
2016-06-27T02:09:46.371Z,0
2016-06-27T02:10:46.330Z,0
2016-06-27T02:11:46.310Z,0
2016-06-27T02:12:46.329Z,0
2016-06-27T02:13:46.310Z,0
2016-06-27T02:14:46.335Z,0
2016-06-27T02:15:46.322Z,0
2016-06-27T02:16:46.317Z,4
2016-06-27T02:17:46.299Z,4
2016-06-27T02:18:46.298Z,4
2016-06-27T02:19:46.643Z,4
2016-06-27T02:20:46.328Z,4
2016-06-27T02:21:46.310Z,4
2016-06-27T02:22:46.323Z,0
2016-06-27T02:23:46.315Z,0
2016-06-27T02:24:46.311Z,4
2016-06-27T02:25:46.311Z,4
2016-06-27T02:26:46.411Z,4
2016-06-27T02:27:46.656Z,8
2016-06-27T02:28:46.406Z,4
2016-06-27T02:29:46.335Z,4
2016-06-27T02:30:46.362Z,8
2016-06-27T02:31:46.343Z,8
2016-06-27T02:32:46.342Z,8
2016-06-27T02:33:46.345Z,8
2016-06-27T02:34:46.335Z,8
2016-06-27T02:35:46.359Z,8
2016-06-27T02:36:46.319Z,16
2016-06-27T02:37:46.403Z,16
2016-06-27T02:38:46.360Z,16
2016-06-27T02:39:46.354Z,20
2016-06-27T02:40:46.318Z,20
2016-06-27T02:41:46.330Z,20
2016-06-27T02:42:46.345Z,24
2016-06-27T02:43:46.328Z,24
2016-06-27T02:44:46.332Z,32
2016-06-27T02:45:46.355Z,32
2016-06-27T02:46:46.901Z,36
2016-06-27T02:47:46.402Z,40
2016-06-27T02:48:46.337Z,44
2016-06-27T02:49:46.376Z,52
2016-06-27T02:50:46.356Z,56
2016-06-27T02:51:46.390Z,60
2016-06-27T02:52:46.330Z,68
2016-06-27T02:53:46.357Z,72
2016-06-27T02:54:46.343Z,84
2016-06-27T02:55:46.435Z,92
2016-06-27T02:56:46.353Z,96
2016-06-27T02:57:46.335Z,104
2016-06-27T02:58:46.385Z,116
2016-06-27T02:59:46.374Z,128
2016-06-27T03:00:46.343Z,140
2016-06-27T03:01:46.341Z,152
2016-06-27T03:02:46.366Z,164
2016-06-27T03:03:46.381Z,180
2016-06-27T03:04:46.419Z,192
2016-06-27T03:05:46.350Z,208
2016-06-27T03:06:46.358Z,224
2016-06-27T03:07:46.364Z,244
2016-06-27T03:08:46.419Z,264
2016-06-27T03:09:46.384Z,288
2016-06-27T03:10:46.357Z,308
2016-06-27T03:11:46.375Z,328
2016-06-27T03:12:46.372Z,352
2016-06-27T03:13:46.490Z,372
2016-06-27T03:14:46.368Z,396
2016-06-27T03:15:46.347Z,424
2016-06-27T03:16:46.383Z,452
2016-06-27T03:17:46.335Z,480
2016-06-27T03:18:46.363Z,508
2016-06-27T03:19:46.371Z,536
2016-06-27T03:20:46.423Z,564
2016-06-27T03:21:46.397Z,600
2016-06-27T03:22:46.615Z,632
2016-06-27T03:23:46.374Z,664
2016-06-27T03:24:46.376Z,704
2016-06-27T03:25:46.374Z,748
2016-06-27T03:26:46.376Z,796
2016-06-27T03:27:46.511Z,840
2016-06-27T03:28:46.376Z,880
2016-06-27T03:29:46.401Z,916
2016-06-27T03:30:46.377Z,956
2016-06-27T03:31:46.399Z,988
2016-06-27T03:32:46.387Z,1024
2016-06-27T03:33:46.379Z,1048
2016-06-27T03:34:46.381Z,1072
2016-06-27T03:35:46.383Z,1092
2016-06-27T03:36:46.358Z,1116
2016-06-27T03:37:46.382Z,1136
2016-06-27T03:38:46.387Z,1164
2016-06-27T03:39:46.370Z,1196
2016-06-27T03:40:46.405Z,1220
2016-06-27T03:41:46.375Z,1264
2016-06-27T03:42:46.375Z,1324
2016-06-27T03:43:46.374Z,1408
2016-06-27T03:44:46.389Z,1484
2016-06-27T03:45:46.394Z,1556
2016-06-27T03:46:46.418Z,1636
2016-06-27T03:47:46.403Z,1712
2016-06-27T03:48:46.381Z,1800
2016-06-27T03:49:46.419Z,1908
2016-06-27T03:50:46.400Z,1984
2016-06-27T03:51:46.432Z,2008
2016-06-27T03:52:46.386Z,2048
2016-06-27T03:53:46.484Z,2116
2016-06-27T03:54:46.411Z,2172
2016-06-27T03:55:46.424Z,2236
2016-06-27T03:56:46.450Z,2284
2016-06-27T03:57:46.389Z,2352
2016-06-27T03:58:46.691Z,2392
2016-06-27T03:59:46.423Z,2424
2016-06-27T04:00:46.468Z,2484
2016-06-27T04:01:46.933Z,2540
2016-06-27T04:02:46.405Z,2544
2016-06-27T04:03:46.406Z,2608
2016-06-27T04:04:46.426Z,2604
2016-06-27T04:05:46.398Z,2580
2016-06-27T04:06:46.491Z,2612
2016-06-27T04:07:46.484Z,2664
2016-06-27T04:08:46.464Z,2680
2016-06-27T04:09:46.433Z,2772
2016-06-27T04:10:46.574Z,2880
2016-06-27T04:11:46.483Z,2940
2016-06-27T04:12:46.453Z,3044
2016-06-27T04:13:46.473Z,3136
2016-06-27T04:14:46.413Z,3156
2016-06-27T04:15:46.552Z,3180
2016-06-27T04:16:46.495Z,3252
2016-06-27T04:17:46.436Z,3332
2016-06-27T04:18:46.437Z,3344
2016-06-27T04:19:46.444Z,3364
2016-06-27T04:20:46.438Z,3404
2016-06-27T04:21:46.426Z,3400
2016-06-27T04:22:46.403Z,3520
2016-06-27T04:23:46.397Z,3564
2016-06-27T04:24:46.420Z,3824
2016-06-27T04:25:47.171Z,4020
2016-06-27T04:26:46.408Z,4088
2016-06-27T04:27:46.445Z,4120
2016-06-27T04:28:46.434Z,4144
2016-06-27T04:29:46.440Z,4152
2016-06-27T04:30:46.582Z,4244
2016-06-27T04:31:46.420Z,4356
2016-06-27T04:32:46.459Z,4388
2016-06-27T04:33:46.522Z,4476
2016-06-27T04:34:46.492Z,4472
2016-06-27T04:35:46.442Z,4548
2016-06-27T04:36:46.474Z,4568
2016-06-27T04:37:46.472Z,4720
2016-06-27T04:38:46.444Z,4664
2016-06-27T04:39:46.423Z,4688
2016-06-27T04:40:46.549Z,4748
2016-06-27T04:41:46.446Z,4752
2016-06-27T04:42:46.496Z,4804
2016-06-27T04:43:46.448Z,4880
2016-06-27T04:44:46.453Z,4944
2016-06-27T04:45:46.469Z,4936
2016-06-27T04:46:46.441Z,4976
2016-06-27T04:47:46.453Z,5080
2016-06-27T04:48:46.443Z,4980
2016-06-27T04:49:46.423Z,5160
2016-06-27T04:50:46.438Z,5196
2016-06-27T04:51:46.445Z,5252
2016-06-27T04:52:46.417Z,5340
2016-06-27T04:53:46.453Z,5384
2016-06-27T04:54:46.488Z,5560
2016-06-27T04:55:46.403Z,5596
2016-06-27T04:56:46.453Z,5616
2016-06-27T04:57:46.490Z,6212
2016-06-27T04:58:46.502Z,6740
2016-06-27T04:59:46.442Z,8388
2016-06-27T05:00:46.451Z,8344
2016-06-27T05:01:46.460Z,10116
2016-06-27T05:02:46.484Z,11428
2016-06-27T05:03:46.497Z,10792
2016-06-27T05:04:46.466Z,11584
2016-06-27T05:05:46.444Z,11028
2016-06-27T05:06:46.483Z,7044
2016-06-27T05:07:46.493Z,6740
2016-06-27T05:08:46.509Z,7460
2016-06-27T05:09:46.466Z,7792
2016-06-27T05:10:46.514Z,6608
2016-06-27T05:11:46.443Z,6372
2016-06-27T05:12:46.507Z,6352
2016-06-27T05:13:46.496Z,6412
2016-06-27T05:14:46.473Z,6620
2016-06-27T05:15:46.513Z,6408
2016-06-27T05:16:46.503Z,6500
2016-06-27T05:17:46.475Z,6572
2016-06-27T05:18:46.485Z,6568
2016-06-27T05:19:46.455Z,6644
2016-06-27T05:20:46.462Z,6680
2016-06-27T05:21:46.457Z,6916
2016-06-27T05:22:46.474Z,6748
2016-06-27T05:23:46.452Z,7132
2016-06-27T05:24:46.522Z,7372
2016-06-27T05:25:46.503Z,7272
2016-06-27T05:26:46.476Z,7572
2016-06-27T05:27:46.549Z,7808
2016-06-27T05:28:46.545Z,7720
2016-06-27T05:29:47.477Z,8064
2016-06-27T05:30:46.524Z,8640
2016-06-27T05:31:46.507Z,9544
2016-06-27T05:32:46.517Z,10472
2016-06-27T05:33:46.510Z,11468
2016-06-27T05:34:46.529Z,12644
2016-06-27T05:35:46.508Z,14444
2016-06-27T05:36:46.454Z,15512
2016-06-27T05:37:46.545Z,14932
2016-06-27T05:38:46.508Z,16460
2016-06-27T05:39:46.532Z,16720
2016-06-27T05:40:46.484Z,18132
2016-06-27T05:41:46.539Z,19392
2016-06-27T05:42:46.558Z,19136
2016-06-27T05:43:46.533Z,21952
2016-06-27T05:44:46.510Z,21568
2016-06-27T05:45:46.545Z,21920
2016-06-27T05:46:46.474Z,22432
2016-06-27T05:47:46.481Z,21984
2016-06-27T05:48:46.787Z,21792
2016-06-27T05:49:46.521Z,22944
2016-06-27T05:50:46.485Z,23520
2016-06-27T05:51:46.519Z,23616
2016-06-27T05:52:46.671Z,21888
2016-06-27T05:53:46.515Z,25120
2016-06-27T05:54:46.504Z,26688
2016-06-27T05:55:47.446Z,26720
2016-06-27T05:56:46.960Z,24160
2016-06-27T05:57:46.507Z,24384
2016-06-27T05:58:46.508Z,28064
2016-06-27T05:59:47.237Z,25088
2016-06-27T06:00:46.547Z,24512
2016-06-27T06:01:46.561Z,21376
2016-06-27T06:02:46.529Z,20096
2016-06-27T06:03:46.493Z,20576
2016-06-27T06:04:46.527Z,24864
2016-06-27T06:05:46.526Z,24416
2016-06-27T06:06:46.506Z,22240
2016-06-27T06:07:46.496Z,22720
2016-06-27T06:08:46.571Z,23872
2016-06-27T06:09:46.512Z,21376
2016-06-27T06:10:46.557Z,17620
2016-06-27T06:11:46.548Z,16552
2016-06-27T06:12:46.534Z,17176
2016-06-27T06:13:47.114Z,16508
2016-06-27T06:14:46.550Z,17056
2016-06-27T06:15:46.553Z,12524
2016-06-27T06:16:46.520Z,15592
2016-06-27T06:17:46.526Z,14936
2016-06-27T06:18:46.519Z,12612
2016-06-27T06:19:46.541Z,14652
2016-06-27T06:20:46.538Z,32544
2016-06-27T06:21:46.511Z,30720
2016-06-27T06:22:46.542Z,18764
2016-06-27T06:23:46.578Z,22400
2016-06-27T06:24:46.542Z,37152
2016-06-27T06:25:46.542Z,52224
2016-06-27T06:26:46.605Z,52480
2016-06-27T06:27:46.551Z,49376
2016-06-27T06:28:46.529Z,51712
2016-06-27T06:29:46.521Z,56768
2016-06-27T06:30:46.890Z,59136
2016-06-27T06:31:46.558Z,53216
2016-06-27T06:32:46.582Z,51584
2016-06-27T06:33:46.538Z,58464
2016-06-27T06:34:46.567Z,56640
2016-06-27T06:35:46.578Z,56000
2016-06-27T06:36:46.540Z,60192
2016-06-27T06:37:46.596Z,37056
2016-06-27T06:38:46.614Z,14832
2016-06-27T06:39:46.654Z,56192
2016-06-27T06:40:46.597Z,57472
2016-06-27T06:41:46.617Z,58592
2016-06-27T06:42:46.611Z,18376
2016-06-27T06:43:47.246Z,51936
2016-06-27T06:44:46.687Z,52256
2016-06-27T06:45:46.545Z,12052
2016-06-27T06:46:46.610Z,57792
2016-06-27T06:47:46.624Z,21152
2016-06-27T06:48:47.270Z,31648
2016-06-27T06:49:46.869Z,65920
2016-06-27T06:50:47.522Z,64640
2016-06-27T06:51:46.703Z,44480
2016-06-27T06:52:46.570Z,15364
2016-06-27T06:53:46.558Z,9748
2016-06-27T06:54:46.562Z,8572
2016-06-27T06:55:46.563Z,23872
2016-06-27T06:56:46.591Z,13360
2016-06-27T06:57:47.265Z,50592
2016-06-27T06:58:46.612Z,63584
2016-06-27T06:59:46.801Z,45504
2016-06-27T07:00:46.662Z,22048
2016-06-27T07:01:46.606Z,53248
2016-06-27T07:02:46.587Z,55328
2016-06-27T07:03:47.390Z,10124
2016-06-27T07:04:46.607Z,16260
2016-06-27T07:05:46.612Z,13340
2016-06-27T07:06:46.587Z,64064
2016-06-27T07:07:46.599Z,54752
2016-06-27T07:08:46.574Z,50752
2016-06-27T07:09:46.555Z,52192
2016-06-27T07:10:46.590Z,56928
2016-06-27T07:11:46.615Z,64000
2016-06-27T07:12:46.577Z,59392
2016-06-27T07:13:46.641Z,71232
2016-06-27T07:14:46.589Z,62752
2016-06-27T07:15:47.316Z,66304
2016-06-27T07:16:46.598Z,62240
2016-06-27T07:17:46.749Z,53568
2016-06-27T07:18:46.631Z,52960
2016-06-27T07:19:46.612Z,15152
2016-06-27T07:20:46.569Z,15464
2016-06-27T07:21:46.656Z,27232
2016-06-27T07:22:46.598Z,47328
2016-06-27T07:23:46.577Z,51520
2016-06-27T07:24:46.719Z,56928
2016-06-27T07:25:46.959Z,61664
2016-06-27T07:26:46.702Z,63328
2016-06-27T07:27:46.599Z,24352
2016-06-27T07:28:46.632Z,61792
2016-06-27T07:29:46.622Z,66464
2016-06-27T07:30:46.600Z,63968
2016-06-27T07:31:46.768Z,18860
2016-06-27T07:32:46.602Z,62144
2016-06-27T07:33:46.593Z,62400
2016-06-27T07:34:46.818Z,66624
2016-06-27T07:35:46.812Z,69856
2016-06-27T07:36:47.104Z,63040
2016-06-27T07:37:46.746Z,39584
2016-06-27T07:38:46.654Z,66272
2016-06-27T07:39:46.751Z,70752
2016-06-27T07:40:46.721Z,60320
2016-06-27T07:41:46.633Z,71616
2016-06-27T07:42:46.635Z,31712
2016-06-27T07:43:46.750Z,75104
2016-06-27T07:44:46.748Z,62592
2016-06-27T07:45:46.741Z,73216
2016-06-27T07:46:46.624Z,44480
2016-06-27T07:47:46.805Z,43360
2016-06-27T07:48:47.161Z,42752
2016-06-27T07:49:46.607Z,41376
2016-06-27T07:50:47.333Z,37536
2016-06-27T07:51:46.799Z,31776
2016-06-27T07:52:46.730Z,31072
2016-06-27T07:53:46.659Z,27616
2016-06-27T07:54:46.822Z,27680
2016-06-27T07:55:46.911Z,28544
2016-06-27T07:56:46.819Z,27328
2016-06-27T07:57:46.825Z,26464
2016-06-27T07:58:46.689Z,26144
2016-06-27T07:59:46.652Z,24960
2016-06-27T08:00:46.674Z,23904
2016-06-27T08:01:46.723Z,23776
2016-06-27T08:02:46.631Z,24352
2016-06-27T08:03:46.677Z,24128
2016-06-27T08:04:46.711Z,22368
2016-06-27T08:05:46.646Z,24416
2016-06-27T08:06:46.898Z,23808
2016-06-27T08:07:46.637Z,26432
2016-06-27T08:08:46.652Z,29792
2016-06-27T08:09:46.724Z,31040
2016-06-27T08:10:46.728Z,32352
2016-06-27T08:11:46.719Z,28256
2016-06-27T08:12:46.696Z,29536
2016-06-27T08:13:46.719Z,28544
2016-06-27T08:14:46.808Z,28224
2016-06-27T08:15:46.733Z,28640
2016-06-27T08:16:46.652Z,28192
2016-06-27T08:17:46.653Z,28704
2016-06-27T08:18:46.703Z,28640
2016-06-27T08:19:46.666Z,27456
2016-06-27T08:20:46.667Z,27584
2016-06-27T08:21:46.650Z,27040
2016-06-27T08:22:46.664Z,26272
2016-06-27T08:23:46.651Z,25728
2016-06-27T08:24:46.644Z,24832
2016-06-27T08:25:46.665Z,23776
2016-06-27T08:26:46.750Z,23104
2016-06-27T08:27:46.670Z,23936
2016-06-27T08:28:46.721Z,24320
2016-06-27T08:29:46.730Z,23296
2016-06-27T08:30:46.748Z,21536
2016-06-27T08:31:46.690Z,21312
2016-06-27T08:32:46.687Z,20576
2016-06-27T08:33:46.660Z,21600
2016-06-27T08:34:46.678Z,21600
2016-06-27T08:35:46.734Z,22368
2016-06-27T08:36:46.775Z,24064
2016-06-27T08:37:46.670Z,24288
2016-06-27T08:38:46.695Z,24544
2016-06-27T08:39:46.685Z,22720
2016-06-27T08:40:46.700Z,22784
2016-06-27T08:41:46.715Z,22464
2016-06-27T08:42:46.717Z,23104
2016-06-27T08:43:46.711Z,23424
2016-06-27T08:44:46.695Z,23424
2016-06-27T08:45:46.747Z,23360
2016-06-27T08:46:46.737Z,23168
2016-06-27T08:47:46.741Z,23552
2016-06-27T08:48:46.735Z,24000
2016-06-27T08:49:46.683Z,24832
2016-06-27T08:50:46.669Z,25600
2016-06-27T08:51:46.679Z,26016
2016-06-27T08:52:46.665Z,26368
2016-06-27T08:53:46.660Z,26432
2016-06-27T08:54:46.670Z,26560
2016-06-27T08:55:46.695Z,26720
2016-06-27T08:56:46.732Z,26272
2016-06-27T08:57:46.711Z,26016
2016-06-27T08:58:46.789Z,26560
2016-06-27T08:59:46.733Z,25728
2016-06-27T09:00:46.694Z,25792
2016-06-27T09:01:46.727Z,25664
2016-06-27T09:02:46.786Z,25280
2016-06-27T09:03:46.745Z,26272
2016-06-27T09:04:46.725Z,26496
2016-06-27T09:05:46.702Z,25248
2016-06-27T09:06:46.795Z,22688
2016-06-27T09:07:46.779Z,25952
2016-06-27T09:08:46.726Z,27584
2016-06-27T09:09:46.753Z,29248
2016-06-27T09:10:46.695Z,28704
2016-06-27T09:11:46.769Z,25728
2016-06-27T09:12:46.710Z,27712
2016-06-27T09:13:46.703Z,27168
2016-06-27T09:14:46.709Z,27264
2016-06-27T09:15:46.732Z,25568
2016-06-27T09:16:46.694Z,24928
2016-06-27T09:17:46.730Z,25856
2016-06-27T09:18:46.694Z,27392
2016-06-27T09:19:46.711Z,26848
2016-06-27T09:20:46.702Z,26336
2016-06-27T09:21:46.727Z,25952
2016-06-27T09:22:46.732Z,25600
2016-06-27T09:23:46.745Z,26240
2016-06-27T09:24:46.742Z,27904
2016-06-27T09:25:46.752Z,25120
2016-06-27T09:26:46.730Z,26080
2016-06-27T09:27:46.711Z,25024
2016-06-27T09:28:46.718Z,24576
2016-06-27T09:29:46.720Z,24736
2016-06-27T09:30:46.715Z,24384
2016-06-27T09:31:46.801Z,23744
2016-06-27T09:32:46.745Z,24224
2016-06-27T09:33:47.373Z,23168
2016-06-27T09:34:47.417Z,24192
2016-06-27T09:35:46.735Z,25888
2016-06-27T09:36:46.742Z,26848
2016-06-27T09:37:46.744Z,27392
2016-06-27T09:38:46.838Z,25920
2016-06-27T09:39:46.815Z,26624
2016-06-27T09:40:46.760Z,23968
2016-06-27T09:41:46.771Z,22784
2016-06-27T09:42:46.782Z,23264
2016-06-27T09:43:46.752Z,23872
2016-06-27T09:44:46.781Z,23424
2016-06-27T09:45:46.742Z,22912
2016-06-27T09:46:47.346Z,23616
2016-06-27T09:47:46.725Z,22784
2016-06-27T09:48:47.358Z,21728
2016-06-27T09:49:46.768Z,23712
2016-06-27T09:50:46.747Z,24192
2016-06-27T09:51:46.826Z,24672
2016-06-27T09:52:46.968Z,24512
2016-06-27T09:53:46.753Z,25248
2016-06-27T09:54:46.763Z,25664
2016-06-27T09:55:46.751Z,24896
2016-06-27T09:56:46.768Z,25056
2016-06-27T09:57:46.794Z,26208
2016-06-27T09:58:46.791Z,26016
2016-06-27T09:59:46.815Z,22528
2016-06-27T10:00:46.782Z,23808
2016-06-27T10:01:46.843Z,22688
2016-06-27T10:02:46.770Z,21568
2016-06-27T10:03:46.774Z,20576
2016-06-27T10:04:46.743Z,22944
2016-06-27T10:05:47.118Z,23648
2016-06-27T10:06:47.028Z,22944
2016-06-27T10:07:46.767Z,25696
2016-06-27T10:08:46.891Z,28576
2016-06-27T10:09:46.912Z,25216
2016-06-27T10:10:47.837Z,23264
2016-06-27T10:11:46.992Z,18944
2016-06-27T10:12:46.762Z,17816
2016-06-27T10:13:46.761Z,20064
2016-06-27T10:14:46.776Z,23904
2016-06-27T10:15:46.780Z,25568
2016-06-27T10:16:46.787Z,23872
2016-06-27T10:17:46.809Z,23136
2016-06-27T10:18:46.813Z,23328
2016-06-27T10:19:46.810Z,23680
2016-06-27T10:20:46.922Z,23520
2016-06-27T10:21:46.778Z,23840
2016-06-27T10:22:46.767Z,25024
2016-06-27T10:23:46.805Z,22432
2016-06-27T10:24:46.823Z,23872
2016-06-27T10:25:46.837Z,22976
2016-06-27T10:26:47.350Z,20608
2016-06-27T10:27:46.760Z,17656
2016-06-27T10:28:46.785Z,16976
2016-06-27T10:29:46.793Z,18124
2016-06-27T10:30:46.822Z,20000
2016-06-27T10:31:46.857Z,21248
2016-06-27T10:32:46.836Z,23776
2016-06-27T10:33:46.858Z,25184
2016-06-27T10:34:46.792Z,26208
2016-06-27T10:35:46.794Z,24320
2016-06-27T10:36:46.789Z,24032
2016-06-27T10:37:46.767Z,25120
2016-06-27T10:38:46.821Z,24864
2016-06-27T10:39:46.846Z,23904
2016-06-27T10:40:46.811Z,19552
2016-06-27T10:41:46.816Z,19104
2016-06-27T10:42:46.831Z,17512
2016-06-27T10:43:46.792Z,20032
2016-06-27T10:44:46.828Z,21664
2016-06-27T10:45:46.823Z,24160
2016-06-27T10:46:47.451Z,26944
2016-06-27T10:47:47.046Z,28448
2016-06-27T10:48:46.863Z,25024
2016-06-27T10:49:46.833Z,23968
2016-06-27T10:50:46.833Z,24448
2016-06-27T10:51:47.367Z,24736
2016-06-27T10:52:46.897Z,25152
2016-06-27T10:53:46.867Z,27264
2016-06-27T10:54:46.840Z,27680
2016-06-27T10:55:46.802Z,27232
2016-06-27T10:56:46.834Z,26720
2016-06-27T10:57:46.853Z,23776
2016-06-27T10:58:46.868Z,22688
2016-06-27T10:59:46.815Z,22720
2016-06-27T11:00:46.819Z,21600
2016-06-27T11:01:46.819Z,19616
2016-06-27T11:02:46.880Z,18784
2016-06-27T11:03:46.905Z,19488
2016-06-27T11:04:46.858Z,20672
2016-06-27T11:05:46.898Z,20320
2016-06-27T11:06:46.851Z,20960
2016-06-27T11:07:46.831Z,23584
2016-06-27T11:08:46.843Z,25344
2016-06-27T11:09:46.808Z,25344
2016-06-27T11:10:46.870Z,25216
2016-06-27T11:11:46.850Z,26240
2016-06-27T11:12:46.858Z,23488
2016-06-27T11:13:46.838Z,23488
2016-06-27T11:14:46.873Z,23072
2016-06-27T11:15:47.565Z,21696
2016-06-27T11:16:46.939Z,22944
2016-06-27T11:17:46.918Z,20032
2016-06-27T11:18:46.833Z,18720
2016-06-27T11:19:46.887Z,22720
2016-06-27T11:20:46.830Z,26144
2016-06-27T11:21:46.863Z,25088
2016-06-27T11:22:46.839Z,26016
2016-06-27T11:23:46.844Z,25888
2016-06-27T11:24:46.836Z,24768
2016-06-27T11:25:46.869Z,26368
2016-06-27T11:26:46.963Z,25248
2016-06-27T11:27:46.881Z,27872
2016-06-27T11:28:46.823Z,25984
2016-06-27T11:29:46.858Z,23840
2016-06-27T11:30:46.858Z,30016
2016-06-27T11:31:46.837Z,29664
2016-06-27T11:32:46.834Z,29440
2016-06-27T11:33:46.859Z,24800
2016-06-27T11:34:46.886Z,23808
2016-06-27T11:35:46.872Z,24000
2016-06-27T11:36:46.933Z,22432
2016-06-27T11:37:46.868Z,21696
2016-06-27T11:38:46.892Z,22336
2016-06-27T11:39:46.863Z,21760
2016-06-27T11:40:46.947Z,17756
2016-06-27T11:41:46.868Z,15908
2016-06-27T11:42:46.938Z,13952
2016-06-27T11:43:46.869Z,14108
2016-06-27T11:44:46.880Z,13444
2016-06-27T11:45:46.958Z,15104
2016-06-27T11:46:47.885Z,16644
2016-06-27T11:47:46.936Z,19808
2016-06-27T11:48:46.890Z,22560
2016-06-27T11:49:46.859Z,20128
2016-06-27T11:50:46.885Z,18248
2016-06-27T11:51:46.905Z,19520
2016-06-27T11:52:46.922Z,19744
2016-06-27T11:53:47.281Z,16552
2016-06-27T11:54:46.963Z,19712
2016-06-27T11:55:46.867Z,21056
2016-06-27T11:56:46.888Z,20160
2016-06-27T11:57:46.895Z,17116
2016-06-27T11:58:46.955Z,16012
2016-06-27T11:59:46.881Z,15008
2016-06-27T12:00:46.897Z,13796
2016-06-27T12:01:46.890Z,12288
2016-06-27T12:02:46.926Z,11388
2016-06-27T12:03:46.915Z,13348
2016-06-27T12:04:46.871Z,15832
2016-06-27T12:05:46.887Z,17476
2016-06-27T12:06:46.891Z,13148
2016-06-27T12:07:46.889Z,12144
2016-06-27T12:08:46.892Z,11844
2016-06-27T12:09:46.927Z,12128
2016-06-27T12:10:46.870Z,12712
2016-06-27T12:11:46.889Z,12240
2016-06-27T12:12:46.904Z,13708
2016-06-27T12:13:46.893Z,10256
2016-06-27T12:14:46.883Z,10364
2016-06-27T12:15:46.939Z,14104
2016-06-27T12:16:46.893Z,14660
2016-06-27T12:17:46.924Z,15280
2016-06-27T12:18:46.902Z,16236
2016-06-27T12:19:46.897Z,20224
2016-06-27T12:20:46.928Z,23776
2016-06-27T12:21:46.896Z,27424
2016-06-27T12:22:47.025Z,28640
2016-06-27T12:23:46.958Z,27360
2016-06-27T12:24:46.887Z,27232
2016-06-27T12:25:46.947Z,25824
2016-06-27T12:26:47.071Z,25120
2016-06-27T12:27:46.922Z,24736
2016-06-27T12:28:46.922Z,24704
2016-06-27T12:29:47.053Z,24384
2016-06-27T12:30:47.001Z,23552
2016-06-27T12:31:47.062Z,23104
2016-06-27T12:32:46.910Z,22720
2016-06-27T12:33:47.058Z,23680
2016-06-27T12:34:46.926Z,21216
2016-06-27T12:35:47.007Z,23008
2016-06-27T12:36:47.763Z,22240
2016-06-27T12:37:47.226Z,23104
2016-06-27T12:38:46.974Z,24064
2016-06-27T12:39:47.006Z,22400
2016-06-27T12:40:46.984Z,21408
2016-06-27T12:41:46.978Z,20384
2016-06-27T12:42:46.975Z,19200
2016-06-27T12:43:46.977Z,20832
2016-06-27T12:44:47.050Z,19648
2016-06-27T12:45:46.962Z,14232
2016-06-27T12:46:46.913Z,20512
2016-06-27T12:47:46.934Z,20480
2016-06-27T12:48:46.970Z,21984
2016-06-27T12:49:46.929Z,18236
2016-06-27T12:50:46.931Z,19488
2016-06-27T12:51:46.926Z,17892
2016-06-27T12:52:46.935Z,16316
2016-06-27T12:53:46.960Z,14296
2016-06-27T12:54:46.961Z,11484
2016-06-27T12:55:46.922Z,10720
2016-06-27T12:56:47.015Z,9064
2016-06-27T12:57:46.942Z,8784
2016-06-27T12:58:47.468Z,9836
2016-06-27T12:59:47.239Z,11336
2016-06-27T13:00:46.989Z,11400
2016-06-27T13:01:46.978Z,12036
2016-06-27T13:02:46.959Z,12904
2016-06-27T13:03:46.960Z,13796
2016-06-27T13:04:46.959Z,15220
2016-06-27T13:05:46.962Z,14712
2016-06-27T13:06:46.947Z,12696
2016-06-27T13:07:47.170Z,11528
2016-06-27T13:08:47.218Z,13248
2016-06-27T13:09:47.895Z,14468
2016-06-27T13:10:47.031Z,15000
2016-06-27T13:11:47.079Z,17816
2016-06-27T13:12:47.049Z,19488
2016-06-27T13:13:47.580Z,19040
2016-06-27T13:14:47.080Z,19968
2016-06-27T13:15:47.025Z,21568
2016-06-27T13:16:47.039Z,22784
2016-06-27T13:17:47.039Z,20416
2016-06-27T13:18:47.050Z,21376
2016-06-27T13:19:46.997Z,22272
2016-06-27T13:20:47.025Z,26208